Aviation Digital Data Service (ADDS)

Output produced by METARs form (1558 UTC 26 September 2021)
found at http://www.aviationweather.gov/metar/data/
 
METAR text: KGNB 261535Z AUTO 22003KT 10SM CLR 09/M02 A3036 RMK AO2 T00881020
Conditions at: KGNB (GRANBY/GRAND CO , CO, US) observed 1535 UTC 26 September 2021
Temperature: 8.8°C (48°F)
Dewpoint: -2.0°C (28°F) [RH = 47%]
Pressure (altimeter): 30.36 inches Hg (1028.2 mb)
Winds: from the SW (220 degrees) at 3 MPH (3 knots; 1.5 m/s)
Visibility: 10 or more miles (16+ km)
Ceiling: at least 12,000 feet AGL
Clouds: sky clear below 12,000 feet AGL
Weather: automated observation with no human augmentation;
there may or may not be significant weather present at this time

METAR text: KGNB 261515Z AUTO 28003KT 10SM CLR 07/M02 A3036 RMK AO2 T00721023
Conditions at: KGNB (GRANBY/GRAND CO , CO, US) observed 1515 UTC 26 September 2021
Temperature: 7.2°C (45°F)
Dewpoint: -2.3°C (28°F) [RH = 51%]
Pressure (altimeter): 30.36 inches Hg (1028.2 mb)
Winds: from the W (280 degrees) at 3 MPH (3 knots; 1.5 m/s)
Visibility: 10 or more miles (16+ km)
Ceiling: at least 12,000 feet AGL
Clouds: sky clear below 12,000 feet AGL
Weather: automated observation with no human augmentation;
there may or may not be significant weather present at this time